Pagrindinis puslapis
METAR-TAF:

METAR-TAF

Oro uostai :

Bomontas, Teksasas, Jungtinės Amerikos Valstijos

platuma: 30-04-13N, ilguma: 094-12-54W, Aukštis: 10 m

Dabartinis oras

Ataskaita buvo paskelbta 26 minutes, ne 06:35 UTC
Ramus vėjas
Temperatūra 20°C
Drėgmė 88%
Slėgis 1012 hPa
Matomumas: 16.1 km
Giedras dangus

METAR: KBMT 270635Z AUTO 00000KT 10SM CLR 20/18 A2989 RMK AO2 T02000184

Laikas: 01:01 (07:01 UTC)


TAF: trūkstamas

Orai ataskaitas ir orų prognozės (METAR, TAF).

turimą stotys yra geltonos ir raudonos taškus žemėlapyje.

Perkelti pele per norėdami pamatyti stoties vardą.

Tada spustelėkite, norėdami matyti oro stebėjimo ir prognozės.

Norėdami pakeisti žemėlapį: spustelėkite ant žalios mygtukų su juodo kryžiaus žemyn,; žalią mygtuką su brūkšneliu, jei norite nutolinti; arba žalių rodyklių gretimoms žemėlapius.


METAR-TAF: